createdAt,value
2023-02-11T01:26:37.865Z,19.73
2023-02-11T01:29:07.179Z,18.57
2023-02-11T01:31:36.654Z,18.10
2023-02-11T01:34:05.744Z,17.62
2023-02-11T01:36:34.501Z,17.80
2023-02-11T01:39:03.253Z,18.70
2023-02-11T01:41:33.449Z,16.82
2023-02-11T01:44:31.905Z,17.05
2023-02-11T01:47:01.550Z,15.18
2023-02-11T01:49:35.154Z,16.12
2023-02-11T01:52:19.789Z,16.37
2023-02-11T01:55:11.640Z,14.50
2023-02-11T01:57:42.710Z,14.98
2023-02-11T02:00:34.140Z,14.95
2023-02-11T02:03:08.708Z,14.85
2023-02-11T02:05:47.336Z,14.78
2023-02-11T02:08:31.962Z,14.93
2023-02-11T02:11:02.248Z,14.53
2023-02-11T02:13:33.742Z,14.90
2023-02-11T02:16:10.298Z,13.38
2023-02-11T02:18:51.118Z,14.68
2023-02-11T02:22:01.987Z,15.48
2023-02-11T02:24:51.745Z,12.50
2023-02-11T02:27:35.012Z,13.68
2023-02-11T02:30:39.398Z,13.20
2023-02-11T02:33:38.373Z,13.18
2023-02-11T02:36:34.037Z,14.00
2023-02-11T02:39:20.238Z,13.85
2023-02-11T02:41:49.178Z,13.50
2023-02-11T02:44:18.953Z,13.70
2023-02-11T02:46:48.294Z,14.33
2023-02-11T02:49:19.116Z,13.07
2023-02-11T02:52:13.756Z,13.55
2023-02-11T02:55:08.899Z,12.80
2023-02-11T02:58:01.810Z,13.20
2023-02-11T03:00:43.385Z,13.95
2023-02-11T03:03:54.558Z,13.53
2023-02-11T03:06:31.389Z,15.20
2023-02-11T03:09:11.716Z,14.60
2023-02-11T03:11:42.094Z,13.90
2023-02-11T03:14:13.954Z,13.43
2023-02-11T03:16:42.782Z,14.90
2023-02-11T03:19:16.420Z,12.63
2023-02-11T03:21:47.089Z,13.20
2023-02-11T03:24:27.429Z,13.70
2023-02-11T03:26:59.297Z,13.90
2023-02-11T03:29:39.217Z,13.45
2023-02-11T03:32:25.447Z,13.95
2023-02-11T03:35:19.238Z,13.68
2023-02-11T03:37:56.068Z,14.05
2023-02-11T03:40:31.718Z,13.15
2023-02-11T03:43:08.669Z,12.33
2023-02-11T03:45:37.371Z,14.57
2023-02-11T03:48:31.703Z,14.38
2023-02-11T03:51:03.581Z,14.68
2023-02-11T03:53:34.120Z,14.80
2023-02-11T03:56:05.720Z,17.67
2023-02-11T03:58:34.339Z,23.42
2023-02-11T04:01:04.906Z,21.62
2023-02-11T04:03:35.091Z,21.95
2023-02-11T04:06:04.513Z,18.82
2023-02-11T04:08:34.109Z,17.77
2023-02-11T04:11:04.332Z,15.80
2023-02-11T04:13:34.754Z,15.65
2023-02-11T04:16:04.326Z,14.70
2023-02-11T04:18:35.224Z,14.75
2023-02-11T04:21:04.493Z,14.70
2023-02-11T04:23:33.314Z,14.50
2023-02-11T04:26:03.267Z,14.18
2023-02-11T04:28:32.175Z,15.53
2023-02-11T04:31:02.681Z,15.15
2023-02-11T04:33:34.817Z,16.10
2023-02-11T04:36:04.862Z,15.15
2023-02-11T04:38:35.922Z,14.73
2023-02-11T04:41:06.410Z,13.95
2023-02-11T04:43:36.803Z,15.15
2023-02-11T04:46:05.751Z,15.80
2023-02-11T04:48:35.695Z,14.93
2023-02-11T04:51:05.129Z,14.33
2023-02-11T04:53:34.056Z,14.68
2023-02-11T04:56:02.617Z,15.95
2023-02-11T04:58:31.530Z,16.30
2023-02-11T05:01:12.251Z,15.93
2023-02-11T05:03:40.972Z,15.15
2023-02-11T05:06:10.562Z,15.13
2023-02-11T05:08:39.130Z,14.87
2023-02-11T05:11:08.343Z,14.87
2023-02-11T05:13:36.851Z,14.80
2023-02-11T05:16:06.822Z,14.93
2023-02-11T05:18:38.442Z,14.43
2023-02-11T05:21:14.400Z,14.27
2023-02-11T05:23:43.259Z,13.78
2023-02-11T05:26:12.275Z,13.38
2023-02-11T05:28:41.904Z,13.15
2023-02-11T05:31:11.278Z,13.95
2023-02-11T05:33:41.618Z,13.68
2023-02-11T05:36:13.206Z,12.00
2023-02-11T05:38:43.592Z,13.63
2023-02-11T05:41:12.492Z,12.20
2023-02-11T05:43:41.544Z,12.80
2023-02-11T05:46:11.916Z,11.90
2023-02-11T05:48:43.396Z,12.73
2023-02-11T05:51:12.106Z,13.18
2023-02-11T05:53:40.861Z,14.15
2023-02-11T05:56:11.429Z,13.20
2023-02-11T05:58:40.623Z,12.35
2023-02-11T06:01:09.288Z,13.88
2023-02-11T06:03:38.123Z,12.73
2023-02-11T06:06:12.032Z,12.75
2023-02-11T06:08:43.108Z,13.60
2023-02-11T06:11:13.766Z,12.20
2023-02-11T06:13:45.172Z,12.47
2023-02-11T06:16:14.043Z,12.18
2023-02-11T06:18:42.765Z,12.93
2023-02-11T06:21:11.681Z,13.00
2023-02-11T06:23:43.293Z,13.08
2023-02-11T06:26:20.386Z,13.35
2023-02-11T06:28:49.114Z,13.08
2023-02-11T06:31:18.566Z,14.45
2023-02-11T06:33:47.562Z,12.43
2023-02-11T06:36:19.698Z,13.13
2023-02-11T06:38:48.875Z,13.65
2023-02-11T06:41:19.854Z,13.43
2023-02-11T06:43:48.717Z,12.27
2023-02-11T06:46:17.608Z,12.25
2023-02-11T06:48:46.307Z,12.82
2023-02-11T06:51:15.234Z,12.13
2023-02-11T06:53:46.083Z,11.50
2023-02-11T06:56:18.788Z,14.05
2023-02-11T06:58:47.857Z,12.58
2023-02-11T07:01:16.674Z,12.33
2023-02-11T07:03:46.043Z,12.43
2023-02-11T07:06:20.751Z,11.25
2023-02-11T07:08:50.671Z,12.05
2023-02-11T07:11:27.069Z,11.80
2023-02-11T07:14:03.198Z,12.47
2023-02-11T07:16:33.381Z,12.35
2023-02-11T07:19:03.535Z,13.00
2023-02-11T07:21:32.853Z,12.15
2023-02-11T07:24:11.032Z,11.22
2023-02-11T07:26:41.356Z,11.00
2023-02-11T07:29:11.566Z,12.10
2023-02-11T07:31:40.926Z,11.40
2023-02-11T07:34:13.084Z,12.05
2023-02-11T07:36:43.666Z,14.05
2023-02-11T07:39:13.553Z,13.50
2023-02-11T07:41:44.512Z,13.35
2023-02-11T07:44:13.860Z,13.32
2023-02-11T07:46:44.530Z,13.13
2023-02-11T07:49:13.388Z,13.78
2023-02-11T07:51:43.203Z,13.60
2023-02-11T07:54:12.044Z,14.53
2023-02-11T07:56:42.780Z,13.68
2023-02-11T07:59:11.554Z,14.68
2023-02-11T08:01:40.768Z,15.38
2023-02-11T08:04:09.663Z,15.63
2023-02-11T08:06:42.262Z,14.33
2023-02-11T08:09:14.957Z,16.50
2023-02-11T08:11:43.972Z,14.93
2023-02-11T08:14:12.993Z,15.68
2023-02-11T08:16:43.231Z,14.43
2023-02-11T08:19:15.413Z,15.68
2023-02-11T08:21:46.012Z,15.50
2023-02-11T08:24:14.638Z,15.68
2023-02-11T08:26:44.708Z,16.57
2023-02-11T08:29:14.520Z,16.00
2023-02-11T08:31:45.863Z,16.40
2023-02-11T08:34:21.909Z,17.25
2023-02-11T08:36:50.760Z,16.12
2023-02-11T08:39:21.860Z,17.60
2023-02-11T08:41:53.844Z,16.17
2023-02-11T08:44:24.601Z,16.93
2023-02-11T08:46:53.431Z,16.52
2023-02-11T08:49:23.008Z,16.15
2023-02-11T08:51:53.049Z,15.70
2023-02-11T08:54:22.549Z,16.30
2023-02-11T08:56:52.455Z,16.40
2023-02-11T08:59:24.192Z,17.23
2023-02-11T09:01:52.975Z,15.45
2023-02-11T09:04:21.775Z,10.78
2023-02-11T09:06:51.817Z,14.13
2023-02-11T09:09:21.130Z,14.10
2023-02-11T09:11:49.726Z,14.43
2023-02-11T09:14:21.709Z,15.48
2023-02-11T09:16:51.374Z,13.93
2023-02-11T09:19:20.774Z,15.18
2023-02-11T09:21:49.841Z,14.50
2023-02-11T09:24:19.563Z,15.93
2023-02-11T09:26:49.318Z,13.80
2023-02-11T09:29:18.035Z,15.15
2023-02-11T09:31:48.063Z,16.42
2023-02-11T09:34:16.869Z,13.83
2023-02-11T09:36:46.434Z,19.55
2023-02-11T09:39:17.978Z,26.07
2023-02-11T09:42:09.652Z,34.92
2023-02-11T09:44:39.987Z,19.57
2023-02-11T09:47:40.102Z,19.75
2023-02-11T09:50:25.170Z,18.70
2023-02-11T09:53:24.454Z,18.37
2023-02-11T09:55:55.531Z,17.20
2023-02-11T09:58:35.654Z,15.95
2023-02-11T10:01:40.555Z,16.67
2023-02-11T10:04:33.551Z,17.00
2023-02-11T10:07:32.472Z,17.32
2023-02-11T10:10:37.818Z,17.15
2023-02-11T10:13:27.183Z,16.70
2023-02-11T10:16:13.923Z,18.07
2023-02-11T10:19:20.257Z,18.82
2023-02-11T10:22:09.368Z,18.25
2023-02-11T10:24:37.821Z,18.40
2023-02-11T10:27:24.376Z,18.75
2023-02-11T10:29:57.305Z,18.67
2023-02-11T10:32:49.415Z,18.80
2023-02-11T10:35:21.601Z,18.52
2023-02-11T10:37:50.661Z,19.52
2023-02-11T10:40:25.156Z,18.42
2023-02-11T10:43:04.126Z,17.27
2023-02-11T10:45:48.759Z,18.02
2023-02-11T10:48:46.272Z,16.60
2023-02-11T10:51:27.396Z,16.82
2023-02-11T10:54:13.773Z,18.50
2023-02-11T10:56:50.503Z,18.98
2023-02-11T10:59:29.651Z,18.02
2023-02-11T11:02:04.918Z,20.32
2023-02-11T11:04:45.083Z,18.60
2023-02-11T11:07:25.435Z,17.12
2023-02-11T11:09:59.413Z,16.85
2023-02-11T11:12:47.047Z,16.42
2023-02-11T11:15:29.502Z,17.52
2023-02-11T11:18:22.018Z,17.80
2023-02-11T11:21:07.593Z,16.93
2023-02-11T11:23:36.716Z,17.57
2023-02-11T11:26:14.887Z,16.55
2023-02-11T11:28:58.035Z,16.65
2023-02-11T11:31:32.251Z,15.93
2023-02-11T11:34:08.162Z,16.93
2023-02-11T11:36:38.783Z,16.37
2023-02-11T11:39:31.119Z,16.00
2023-02-11T11:42:02.871Z,16.97
2023-02-11T11:44:36.412Z,17.55
2023-02-11T11:47:19.953Z,16.90
2023-02-11T11:50:15.794Z,16.42
2023-02-11T11:52:55.932Z,16.27
2023-02-11T11:55:35.346Z,16.95
2023-02-11T11:58:06.744Z,16.50
2023-02-11T12:00:55.583Z,18.37
2023-02-11T12:03:44.770Z,17.60
2023-02-11T12:06:39.678Z,16.50
2023-02-11T12:09:24.408Z,16.93
2023-02-11T12:12:20.473Z,17.17
2023-02-11T12:15:28.056Z,15.98
2023-02-11T12:18:25.045Z,16.90
2023-02-11T12:21:22.190Z,16.55
2023-02-11T12:24:16.962Z,17.50
2023-02-11T12:26:55.644Z,17.02
2023-02-11T12:29:51.952Z,15.35
2023-02-11T12:33:06.926Z,16.25
2023-02-11T12:36:02.866Z,18.20
2023-02-11T12:38:53.798Z,17.00
2023-02-11T12:41:53.475Z,17.23
2023-02-11T12:44:39.853Z,15.98
2023-02-11T12:47:34.448Z,16.23
2023-02-11T12:50:35.920Z,16.25
2023-02-11T12:53:28.633Z,16.50
2023-02-11T12:56:04.589Z,16.15
2023-02-11T12:58:44.613Z,16.27
2023-02-11T13:01:13.292Z,16.15
2023-02-11T13:03:47.331Z,14.58
2023-02-11T13:06:22.768Z,15.43
2023-02-11T13:08:58.655Z,15.70
2023-02-11T13:11:34.865Z,15.38
2023-02-11T13:14:29.690Z,14.60
2023-02-11T13:16:59.416Z,16.37
2023-02-11T13:19:52.871Z,15.30
2023-02-11T13:22:44.781Z,14.50
2023-02-11T13:25:49.796Z,13.65
2023-02-11T13:28:55.853Z,13.05
2023-02-11T13:31:29.605Z,13.95
2023-02-11T13:33:58.656Z,13.88
2023-02-11T13:36:29.204Z,12.78
2023-02-11T13:39:00.469Z,12.95
2023-02-11T13:41:36.785Z,12.10
2023-02-11T13:44:13.528Z,12.47
2023-02-11T13:47:06.551Z,11.88
2023-02-11T13:49:42.813Z,12.10
2023-02-11T13:52:33.189Z,11.73
2023-02-11T13:55:21.656Z,11.97
2023-02-11T13:58:08.806Z,10.55
2023-02-11T14:00:49.499Z,9.68
2023-02-11T14:03:51.328Z,10.05
2023-02-11T14:06:47.574Z,9.73
2023-02-11T14:09:21.868Z,9.48
2023-02-11T14:11:57.983Z,8.70
2023-02-11T14:14:36.049Z,7.03
2023-02-11T14:17:13.784Z,6.97
2023-02-11T14:19:45.774Z,7.00
2023-02-11T14:22:44.369Z,6.85
2023-02-11T14:25:23.328Z,7.25
2023-02-11T14:28:04.625Z,7.67
2023-02-11T14:30:48.084Z,9.90
2023-02-11T14:33:29.241Z,9.85
2023-02-11T14:36:46.323Z,8.68
2023-02-11T14:39:22.913Z,8.40
2023-02-11T14:41:51.849Z,8.78
2023-02-11T14:44:24.536Z,8.03
2023-02-11T14:46:53.493Z,9.33
2023-02-11T14:49:35.119Z,8.18
2023-02-11T14:52:26.392Z,7.75
2023-02-11T14:55:21.938Z,9.15
2023-02-11T14:58:07.162Z,8.28
2023-02-11T15:00:36.289Z,8.53
2023-02-11T15:03:05.360Z,9.13
2023-02-11T15:05:34.101Z,8.98
2023-02-11T15:08:03.854Z,12.30
2023-02-11T15:10:43.383Z,9.00
2023-02-11T15:13:17.095Z,9.65
2023-02-11T15:15:46.348Z,10.40
2023-02-11T15:18:21.899Z,9.03
2023-02-11T15:20:50.842Z,8.85
2023-02-11T15:23:27.019Z,9.05
2023-02-11T15:25:56.550Z,9.40
2023-02-11T15:28:29.886Z,8.48
2023-02-11T15:31:07.799Z,9.38
2023-02-11T15:33:36.895Z,10.53
2023-02-11T15:36:07.646Z,8.95
2023-02-11T15:38:36.372Z,9.73
2023-02-11T15:41:07.197Z,9.95
2023-02-11T15:43:47.508Z,9.10
2023-02-11T15:46:19.324Z,9.93
2023-02-11T15:48:51.094Z,10.40
2023-02-11T15:51:38.428Z,8.65
2023-02-11T15:54:25.943Z,10.63
2023-02-11T15:57:01.913Z,10.08
2023-02-11T15:59:37.544Z,10.23
2023-02-11T16:02:10.029Z,10.20
2023-02-11T16:04:40.199Z,9.93
2023-02-11T16:07:31.132Z,11.05
2023-02-11T16:10:01.406Z,11.40
2023-02-11T16:12:31.800Z,10.30
2023-02-11T16:15:23.804Z,10.72
2023-02-11T16:17:54.318Z,10.72
2023-02-11T16:20:23.399Z,11.12
2023-02-11T16:22:52.213Z,10.88
2023-02-11T16:25:21.958Z,10.98
2023-02-11T16:27:53.876Z,10.32
2023-02-11T16:30:37.093Z,11.95
2023-02-11T16:33:08.665Z,10.95
2023-02-11T16:35:38.297Z,11.18
2023-02-11T16:38:07.814Z,11.63
2023-02-11T16:40:36.845Z,11.15
2023-02-11T16:43:05.504Z,11.53
2023-02-11T16:45:39.008Z,11.48
2023-02-11T16:48:08.840Z,11.22
2023-02-11T16:50:37.751Z,11.45
2023-02-11T16:53:06.414Z,11.10
2023-02-11T16:55:36.794Z,10.75
2023-02-11T16:58:07.713Z,11.53
2023-02-11T17:00:37.465Z,10.63
2023-02-11T17:03:08.230Z,11.50
2023-02-11T17:05:53.133Z,11.60
2023-02-11T17:08:11.201Z,11.05
2023-02-11T17:10:39.773Z,10.25
2023-02-11T17:13:09.725Z,10.35
2023-02-11T17:15:38.523Z,10.58
2023-02-11T17:18:12.328Z,9.25
2023-02-11T17:20:41.408Z,10.18
2023-02-11T17:23:10.779Z,10.15
2023-02-11T17:25:40.445Z,10.72
2023-02-11T17:28:09.189Z,9.95
2023-02-11T17:30:41.853Z,9.80
2023-02-11T17:33:10.387Z,9.55
2023-02-11T17:35:40.690Z,9.80
2023-02-11T17:38:09.670Z,9.68
2023-02-11T17:40:39.749Z,9.85
2023-02-11T17:43:09.011Z,10.45
2023-02-11T17:45:42.608Z,10.63
2023-02-11T17:48:11.347Z,10.10
2023-02-11T17:50:39.725Z,9.45
2023-02-11T17:53:10.008Z,9.45
2023-02-11T17:55:40.013Z,11.12
2023-02-11T17:58:08.760Z,9.48
2023-02-11T18:00:38.871Z,10.40
2023-02-11T18:03:07.566Z,10.30
2023-02-11T18:05:36.859Z,10.30
2023-02-11T18:08:06.580Z,9.93
2023-02-11T18:10:36.828Z,10.63
2023-02-11T18:13:05.619Z,10.85
2023-02-11T18:15:35.963Z,10.00
2023-02-11T18:18:04.772Z,9.48
2023-02-11T18:20:33.495Z,10.60
2023-02-11T18:23:02.743Z,9.93
2023-02-11T18:25:31.740Z,10.82
2023-02-11T18:28:01.015Z,10.28
2023-02-11T18:30:30.878Z,10.68
2023-02-11T18:33:00.730Z,10.78
2023-02-11T18:35:29.578Z,10.65
2023-02-11T18:37:59.924Z,9.95
2023-02-11T18:40:28.517Z,10.53
2023-02-11T18:42:59.546Z,10.10
2023-02-11T18:45:31.071Z,10.82
2023-02-11T18:48:05.135Z,10.53
2023-02-11T18:50:33.784Z,10.68
2023-02-11T18:53:02.293Z,10.28
2023-02-11T18:55:31.308Z,10.85
2023-02-11T18:58:00.048Z,10.90
2023-02-11T19:00:28.666Z,11.48
2023-02-11T19:02:58.316Z,10.80
2023-02-11T19:05:29.075Z,11.40
2023-02-11T19:08:00.803Z,11.65
2023-02-11T19:10:29.501Z,12.07
2023-02-11T19:12:59.293Z,12.47
2023-02-11T19:15:31.251Z,10.82
2023-02-11T19:18:00.336Z,11.83
2023-02-11T19:20:30.984Z,12.37
2023-02-11T19:23:00.606Z,11.63
2023-02-11T19:25:30.325Z,12.03
2023-02-11T19:28:00.234Z,12.65
2023-02-11T19:30:29.048Z,12.37
2023-02-11T19:32:58.047Z,12.43
2023-02-11T19:35:26.725Z,12.03
2023-02-11T19:37:55.407Z,12.07
2023-02-11T19:40:24.214Z,11.45
2023-02-11T19:42:53.936Z,11.60
2023-02-11T19:45:22.961Z,12.53
2023-02-11T19:47:56.537Z,12.43
2023-02-11T19:50:27.007Z,12.35
2023-02-11T19:52:56.080Z,12.70
2023-02-11T19:55:25.125Z,12.88
2023-02-11T19:57:54.037Z,13.93
2023-02-11T20:00:23.999Z,12.50
2023-02-11T20:02:54.632Z,12.78
2023-02-11T20:05:23.943Z,12.70
2023-02-11T20:07:54.011Z,13.13
2023-02-11T20:10:24.404Z,13.15
2023-02-11T20:12:52.740Z,11.73
2023-02-11T20:15:21.535Z,13.18
2023-02-11T20:17:51.672Z,13.40
2023-02-11T20:20:21.528Z,13.15
2023-02-11T20:22:52.766Z,13.48
2023-02-11T20:25:24.741Z,12.88
2023-02-11T20:27:54.182Z,13.85
2023-02-11T20:30:22.863Z,13.93
2023-02-11T20:32:52.451Z,13.72
2023-02-11T20:35:22.829Z,13.78
2023-02-11T20:37:52.594Z,13.08
2023-02-11T20:40:21.153Z,12.93
2023-02-11T20:42:50.198Z,12.45
2023-02-11T20:45:18.778Z,14.60
2023-02-11T20:47:48.195Z,14.18
2023-02-11T20:50:17.438Z,13.90
2023-02-11T20:52:47.741Z,14.53
2023-02-11T20:55:17.672Z,13.60
2023-02-11T20:57:51.118Z,13.68
2023-02-11T21:00:20.768Z,13.00
2023-02-11T21:02:54.517Z,12.50
2023-02-11T21:05:23.392Z,12.23
2023-02-11T21:07:53.787Z,13.90
2023-02-11T21:10:22.262Z,13.00
2023-02-11T21:12:52.562Z,13.50
2023-02-11T21:15:22.896Z,13.70
2023-02-11T21:17:51.487Z,13.30
2023-02-11T21:20:20.417Z,14.07
2023-02-11T21:22:50.007Z,15.03
2023-02-11T21:25:21.550Z,14.15
2023-02-11T21:27:51.458Z,14.63
2023-02-11T21:30:20.594Z,13.65
2023-02-11T21:32:49.207Z,14.43
2023-02-11T21:35:17.998Z,14.60
2023-02-11T21:37:48.369Z,14.33
2023-02-11T21:40:17.513Z,15.03
2023-02-11T21:42:46.082Z,13.13
2023-02-11T21:45:15.217Z,14.83
2023-02-11T21:47:43.801Z,15.05
2023-02-11T21:50:12.703Z,14.00
2023-02-11T21:52:41.301Z,15.63
2023-02-11T21:55:10.106Z,15.38
2023-02-11T21:57:39.224Z,14.47
2023-02-11T22:00:09.316Z,14.20
2023-02-11T22:02:38.889Z,14.07
2023-02-11T22:05:08.361Z,14.45
2023-02-11T22:07:37.521Z,13.83
2023-02-11T22:10:07.394Z,14.23
2023-02-11T22:12:37.652Z,12.75
2023-02-11T22:15:07.297Z,13.98
2023-02-11T22:17:35.933Z,13.53
2023-02-11T22:20:06.522Z,13.70
2023-02-11T22:22:36.595Z,13.90
2023-02-11T22:25:06.774Z,13.83
2023-02-11T22:27:37.543Z,12.45
2023-02-11T22:30:08.355Z,12.85
2023-02-11T22:32:38.686Z,12.80
2023-02-11T22:35:08.187Z,13.53
2023-02-11T22:37:38.349Z,14.18
2023-02-11T22:40:08.805Z,13.32
2023-02-11T22:42:37.471Z,13.62
2023-02-11T22:45:10.647Z,13.15
2023-02-11T22:47:40.181Z,14.98
2023-02-11T22:50:10.345Z,12.95
2023-02-11T22:52:39.814Z,14.18
2023-02-11T22:55:10.252Z,13.85
2023-02-11T22:57:39.580Z,13.60
2023-02-11T23:00:10.170Z,12.70
2023-02-11T23:02:39.118Z,14.23
2023-02-11T23:05:08.941Z,13.53
2023-02-11T23:07:37.677Z,13.53
2023-02-11T23:10:07.513Z,12.10
2023-02-11T23:12:36.048Z,12.43
2023-02-11T23:15:06.545Z,13.20
2023-02-11T23:17:35.281Z,12.65
2023-02-11T23:20:07.662Z,13.03
2023-02-11T23:22:36.735Z,12.10
2023-02-11T23:25:07.024Z,13.08
2023-02-11T23:27:35.659Z,13.13
2023-02-11T23:30:05.668Z,12.18
2023-02-11T23:32:40.904Z,12.63
2023-02-11T23:35:10.963Z,13.08
2023-02-11T23:37:41.073Z,12.47
2023-02-11T23:40:12.126Z,12.07
2023-02-11T23:42:40.513Z,11.03
2023-02-11T23:45:11.989Z,10.40
2023-02-11T23:47:41.606Z,10.85
2023-02-11T23:50:11.614Z,10.43
2023-02-11T23:52:41.781Z,10.03
2023-02-11T23:55:10.370Z,9.38
2023-02-11T23:57:39.688Z,9.98
